sensor_id;sensor_type;location;lat;lon;timestamp;temperature;humidity
326;DHT22;150;52.352;14.058;2023-01-13T00:00:12;10.50;60.60
326;DHT22;150;52.352;14.058;2023-01-13T00:02:41;10.50;60.60
326;DHT22;150;52.352;14.058;2023-01-13T00:05:08;10.50;60.80
326;DHT22;150;52.352;14.058;2023-01-13T00:07:35;10.50;60.70
326;DHT22;150;52.352;14.058;2023-01-13T00:10:03;10.40;60.70
326;DHT22;150;52.352;14.058;2023-01-13T00:12:30;10.40;60.40
326;DHT22;150;52.352;14.058;2023-01-13T00:14:56;10.40;60.60
326;DHT22;150;52.352;14.058;2023-01-13T00:17:23;10.40;60.80
326;DHT22;150;52.352;14.058;2023-01-13T00:19:51;10.40;60.40
326;DHT22;150;52.352;14.058;2023-01-13T00:22:18;10.40;60.40
326;DHT22;150;52.352;14.058;2023-01-13T00:24:44;10.40;60.90
326;DHT22;150;52.352;14.058;2023-01-13T00:27:11;10.50;60.60
326;DHT22;150;52.352;14.058;2023-01-13T00:29:38;10.40;60.30
326;DHT22;150;52.352;14.058;2023-01-13T00:32:04;10.40;60.00
326;DHT22;150;52.352;14.058;2023-01-13T00:34:31;10.50;60.30
326;DHT22;150;52.352;14.058;2023-01-13T00:36:59;10.50;59.90
326;DHT22;150;52.352;14.058;2023-01-13T00:39:25;10.50;59.80
326;DHT22;150;52.352;14.058;2023-01-13T00:41:52;10.50;59.50
326;DHT22;150;52.352;14.058;2023-01-13T00:44:37;10.40;60.20
326;DHT22;150;52.352;14.058;2023-01-13T00:47:03;10.50;59.70
326;DHT22;150;52.352;14.058;2023-01-13T00:49:30;10.50;59.80
326;DHT22;150;52.352;14.058;2023-01-13T00:51:56;10.50;59.50
326;DHT22;150;52.352;14.058;2023-01-13T00:54:25;10.50;59.40
326;DHT22;150;52.352;14.058;2023-01-13T00:56:51;10.50;59.40
326;DHT22;150;52.352;14.058;2023-01-13T00:59:18;10.50;59.40
326;DHT22;150;52.352;14.058;2023-01-13T01:01:44;10.50;59.00
326;DHT22;150;52.352;14.058;2023-01-13T01:04:11;10.60;59.20
326;DHT22;150;52.352;14.058;2023-01-13T01:06:38;10.60;58.90
326;DHT22;150;52.352;14.058;2023-01-13T01:09:04;10.60;58.20
326;DHT22;150;52.352;14.058;2023-01-13T01:11:33;10.60;58.80
326;DHT22;150;52.352;14.058;2023-01-13T01:14:01;10.60;58.80
326;DHT22;150;52.352;14.058;2023-01-13T01:16:29;10.60;58.80
326;DHT22;150;52.352;14.058;2023-01-13T01:18:56;10.60;58.80
326;DHT22;150;52.352;14.058;2023-01-13T01:21:24;10.60;58.70
326;DHT22;150;52.352;14.058;2023-01-13T01:23:52;10.60;58.80
326;DHT22;150;52.352;14.058;2023-01-13T01:26:20;10.60;58.80
326;DHT22;150;52.352;14.058;2023-01-13T01:28:49;10.50;58.70
326;DHT22;150;52.352;14.058;2023-01-13T01:31:18;10.50;59.00
326;DHT22;150;52.352;14.058;2023-01-13T01:33:46;10.50;59.10
326;DHT22;150;52.352;14.058;2023-01-13T01:36:14;10.50;59.00
326;DHT22;150;52.352;14.058;2023-01-13T01:38:41;10.60;58.80
326;DHT22;150;52.352;14.058;2023-01-13T01:41:10;10.60;58.50
326;DHT22;150;52.352;14.058;2023-01-13T01:43:47;10.60;58.80
326;DHT22;150;52.352;14.058;2023-01-13T01:46:30;10.60;58.60
326;DHT22;150;52.352;14.058;2023-01-13T01:49:02;10.60;58.70
326;DHT22;150;52.352;14.058;2023-01-13T01:51:35;10.50;58.60
326;DHT22;150;52.352;14.058;2023-01-13T01:54:05;10.50;58.70
326;DHT22;150;52.352;14.058;2023-01-13T01:56:34;10.50;58.70
326;DHT22;150;52.352;14.058;2023-01-13T01:59:01;10.50;58.70
326;DHT22;150;52.352;14.058;2023-01-13T02:01:31;10.50;58.70
326;DHT22;150;52.352;14.058;2023-01-13T02:04:01;10.50;58.70
326;DHT22;150;52.352;14.058;2023-01-13T02:06:30;10.50;58.70
326;DHT22;150;52.352;14.058;2023-01-13T02:08:57;10.50;58.10
326;DHT22;150;52.352;14.058;2023-01-13T02:11:30;10.50;58.20
326;DHT22;150;52.352;14.058;2023-01-13T02:14:15;10.50;58.00
326;DHT22;150;52.352;14.058;2023-01-13T02:16:49;10.60;58.10
326;DHT22;150;52.352;14.058;2023-01-13T02:19:31;10.60;57.70
326;DHT22;150;52.352;14.058;2023-01-13T02:22:22;10.50;57.60
326;DHT22;150;52.352;14.058;2023-01-13T02:25:10;10.60;57.70
326;DHT22;150;52.352;14.058;2023-01-13T02:27:51;10.60;57.50
326;DHT22;150;52.352;14.058;2023-01-13T02:30:29;10.60;57.50
326;DHT22;150;52.352;14.058;2023-01-13T02:33:29;10.70;56.70
326;DHT22;150;52.352;14.058;2023-01-13T02:36:01;10.70;56.70
326;DHT22;150;52.352;14.058;2023-01-13T02:38:33;10.70;56.50
326;DHT22;150;52.352;14.058;2023-01-13T02:41:04;10.70;56.00
326;DHT22;150;52.352;14.058;2023-01-13T02:43:46;10.70;55.90
326;DHT22;150;52.352;14.058;2023-01-13T02:46:38;10.70;56.00
326;DHT22;150;52.352;14.058;2023-01-13T02:49:12;10.80;55.60
326;DHT22;150;52.352;14.058;2023-01-13T02:51:44;10.80;55.30
326;DHT22;150;52.352;14.058;2023-01-13T02:54:15;10.80;55.20
326;DHT22;150;52.352;14.058;2023-01-13T02:56:47;10.80;54.90
326;DHT22;150;52.352;14.058;2023-01-13T02:59:16;10.80;54.90
326;DHT22;150;52.352;14.058;2023-01-13T03:01:46;10.80;54.90
326;DHT22;150;52.352;14.058;2023-01-13T03:07:01;10.80;55.20
326;DHT22;150;52.352;14.058;2023-01-13T03:09:36;10.80;54.80
326;DHT22;150;52.352;14.058;2023-01-13T03:12:09;10.80;55.00
326;DHT22;150;52.352;14.058;2023-01-13T03:14:44;10.80;54.20
326;DHT22;150;52.352;14.058;2023-01-13T03:17:23;10.80;54.00
326;DHT22;150;52.352;14.058;2023-01-13T03:19:56;10.80;54.00
326;DHT22;150;52.352;14.058;2023-01-13T03:22:29;10.80;54.00
326;DHT22;150;52.352;14.058;2023-01-13T03:25:01;10.80;54.00
326;DHT22;150;52.352;14.058;2023-01-13T03:27:33;10.80;54.00
326;DHT22;150;52.352;14.058;2023-01-13T03:30:06;10.80;54.20
326;DHT22;150;52.352;14.058;2023-01-13T03:32:38;10.80;54.00
326;DHT22;150;52.352;14.058;2023-01-13T03:35:09;10.80;53.60
326;DHT22;150;52.352;14.058;2023-01-13T03:37:40;10.80;54.00
326;DHT22;150;52.352;14.058;2023-01-13T03:40:11;10.80;53.60
326;DHT22;150;52.352;14.058;2023-01-13T03:42:41;10.80;53.40
326;DHT22;150;52.352;14.058;2023-01-13T03:45:31;10.80;52.50
326;DHT22;150;52.352;14.058;2023-01-13T03:48:04;10.80;52.30
326;DHT22;150;52.352;14.058;2023-01-13T03:50:34;10.90;52.20
326;DHT22;150;52.352;14.058;2023-01-13T03:53:08;10.90;52.40
326;DHT22;150;52.352;14.058;2023-01-13T03:55:38;10.80;52.00
326;DHT22;150;52.352;14.058;2023-01-13T03:58:10;10.70;52.20
326;DHT22;150;52.352;14.058;2023-01-13T04:00:43;10.80;52.10
326;DHT22;150;52.352;14.058;2023-01-13T04:03:19;10.80;52.10
326;DHT22;150;52.352;14.058;2023-01-13T04:05:53;10.80;51.80
326;DHT22;150;52.352;14.058;2023-01-13T04:08:24;10.80;52.10
326;DHT22;150;52.352;14.058;2023-01-13T04:10:55;10.80;51.90
326;DHT22;150;52.352;14.058;2023-01-13T04:13:25;10.80;51.70
326;DHT22;150;52.352;14.058;2023-01-13T04:15:52;10.80;51.40
326;DHT22;150;52.352;14.058;2023-01-13T04:18:23;10.90;51.60
326;DHT22;150;52.352;14.058;2023-01-13T04:20:52;10.90;51.40
326;DHT22;150;52.352;14.058;2023-01-13T04:23:19;10.90;51.40
326;DHT22;150;52.352;14.058;2023-01-13T04:25:47;10.90;51.30
326;DHT22;150;52.352;14.058;2023-01-13T04:28:14;10.90;50.80
326;DHT22;150;52.352;14.058;2023-01-13T04:30:42;10.90;50.80
326;DHT22;150;52.352;14.058;2023-01-13T04:33:09;11.00;50.70
326;DHT22;150;52.352;14.058;2023-01-13T04:35:37;11.00;50.40
326;DHT22;150;52.352;14.058;2023-01-13T04:38:07;11.00;50.30
326;DHT22;150;52.352;14.058;2023-01-13T04:40:34;11.00;50.20
326;DHT22;150;52.352;14.058;2023-01-13T04:43:02;10.90;50.20
326;DHT22;150;52.352;14.058;2023-01-13T04:45:28;10.90;50.20
326;DHT22;150;52.352;14.058;2023-01-13T04:47:55;10.90;50.00
326;DHT22;150;52.352;14.058;2023-01-13T04:50:22;10.90;49.80
326;DHT22;150;52.352;14.058;2023-01-13T04:52:51;10.80;49.70
326;DHT22;150;52.352;14.058;2023-01-13T04:55:18;10.80;50.10
326;DHT22;150;52.352;14.058;2023-01-13T04:57:46;10.80;50.20
326;DHT22;150;52.352;14.058;2023-01-13T05:00:15;10.80;50.20
326;DHT22;150;52.352;14.058;2023-01-13T05:02:42;10.80;50.20
326;DHT22;150;52.352;14.058;2023-01-13T05:05:09;10.80;50.30
326;DHT22;150;52.352;14.058;2023-01-13T05:07:36;10.80;49.90
326;DHT22;150;52.352;14.058;2023-01-13T05:10:05;10.80;49.70
326;DHT22;150;52.352;14.058;2023-01-13T05:12:31;10.80;49.30
326;DHT22;150;52.352;14.058;2023-01-13T05:15:18;10.80;48.90
326;DHT22;150;52.352;14.058;2023-01-13T05:18:03;10.80;49.50
326;DHT22;150;52.352;14.058;2023-01-13T05:20:29;10.90;49.00
326;DHT22;150;52.352;14.058;2023-01-13T05:22:56;10.80;48.90
326;DHT22;150;52.352;14.058;2023-01-13T05:25:43;10.80;48.90
326;DHT22;150;52.352;14.058;2023-01-13T05:28:12;10.80;49.70
326;DHT22;150;52.352;14.058;2023-01-13T05:30:40;10.90;49.30
326;DHT22;150;52.352;14.058;2023-01-13T05:33:08;10.90;49.50
326;DHT22;150;52.352;14.058;2023-01-13T05:35:37;11.00;49.20
326;DHT22;150;52.352;14.058;2023-01-13T05:38:03;11.00;49.10
326;DHT22;150;52.352;14.058;2023-01-13T05:40:30;11.10;49.00
326;DHT22;150;52.352;14.058;2023-01-13T05:43:17;11.10;48.40
326;DHT22;150;52.352;14.058;2023-01-13T05:45:50;11.10;48.80
326;DHT22;150;52.352;14.058;2023-01-13T05:48:18;11.10;48.60
326;DHT22;150;52.352;14.058;2023-01-13T05:50:46;11.10;48.70
326;DHT22;150;52.352;14.058;2023-01-13T05:53:13;11.10;49.30
326;DHT22;150;52.352;14.058;2023-01-13T05:55:40;11.10;49.00
326;DHT22;150;52.352;14.058;2023-01-13T05:58:08;11.10;49.10
326;DHT22;150;52.352;14.058;2023-01-13T06:00:37;11.10;49.20
326;DHT22;150;52.352;14.058;2023-01-13T06:03:04;11.10;48.60
326;DHT22;150;52.352;14.058;2023-01-13T06:05:31;11.20;48.60
326;DHT22;150;52.352;14.058;2023-01-13T06:07:59;11.20;48.60
326;DHT22;150;52.352;14.058;2023-01-13T06:10:27;11.20;48.60
326;DHT22;150;52.352;14.058;2023-01-13T06:12:54;11.20;48.60
326;DHT22;150;52.352;14.058;2023-01-13T06:15:21;11.20;48.50
326;DHT22;150;52.352;14.058;2023-01-13T06:17:49;11.20;48.60
326;DHT22;150;52.352;14.058;2023-01-13T06:20:16;11.20;48.40
326;DHT22;150;52.352;14.058;2023-01-13T06:22:45;11.30;48.50
326;DHT22;150;52.352;14.058;2023-01-13T06:25:18;11.30;47.90
326;DHT22;150;52.352;14.058;2023-01-13T06:27:45;11.20;47.40
326;DHT22;150;52.352;14.058;2023-01-13T06:30:12;11.20;47.60
326;DHT22;150;52.352;14.058;2023-01-13T06:32:42;11.10;47.90
326;DHT22;150;52.352;14.058;2023-01-13T06:35:13;11.10;48.00
326;DHT22;150;52.352;14.058;2023-01-13T06:37:43;11.10;48.10
326;DHT22;150;52.352;14.058;2023-01-13T06:40:12;11.10;47.90
326;DHT22;150;52.352;14.058;2023-01-13T06:42:39;11.10;48.00
326;DHT22;150;52.352;14.058;2023-01-13T06:45:25;11.10;48.20
326;DHT22;150;52.352;14.058;2023-01-13T06:47:55;11.00;48.30
326;DHT22;150;52.352;14.058;2023-01-13T06:50:24;11.00;48.50
326;DHT22;150;52.352;14.058;2023-01-13T06:52:51;10.90;48.80
326;DHT22;150;52.352;14.058;2023-01-13T06:55:17;11.00;48.80
326;DHT22;150;52.352;14.058;2023-01-13T06:57:50;11.00;48.90
326;DHT22;150;52.352;14.058;2023-01-13T07:00:17;11.10;49.20
326;DHT22;150;52.352;14.058;2023-01-13T07:02:44;11.10;49.10
326;DHT22;150;52.352;14.058;2023-01-13T07:05:11;11.20;48.50
326;DHT22;150;52.352;14.058;2023-01-13T07:07:39;11.10;49.00
326;DHT22;150;52.352;14.058;2023-01-13T07:10:07;11.10;49.20
326;DHT22;150;52.352;14.058;2023-01-13T07:12:38;11.10;49.60
326;DHT22;150;52.352;14.058;2023-01-13T07:15:18;11.10;49.20
326;DHT22;150;52.352;14.058;2023-01-13T07:17:45;11.10;49.20
326;DHT22;150;52.352;14.058;2023-01-13T07:20:12;11.10;49.30
326;DHT22;150;52.352;14.058;2023-01-13T07:22:39;11.10;49.20
326;DHT22;150;52.352;14.058;2023-01-13T07:25:07;11.10;49.20
326;DHT22;150;52.352;14.058;2023-01-13T07:27:34;11.10;49.20
326;DHT22;150;52.352;14.058;2023-01-13T07:30:01;11.10;49.20
326;DHT22;150;52.352;14.058;2023-01-13T07:32:27;11.20;49.30
326;DHT22;150;52.352;14.058;2023-01-13T07:34:56;11.20;48.90
326;DHT22;150;52.352;14.058;2023-01-13T07:37:29;11.20;48.60
326;DHT22;150;52.352;14.058;2023-01-13T07:39:56;11.20;48.70
326;DHT22;150;52.352;14.058;2023-01-13T07:42:23;11.20;48.70
326;DHT22;150;52.352;14.058;2023-01-13T07:45:08;11.20;48.30
326;DHT22;150;52.352;14.058;2023-01-13T07:47:35;11.20;48.40
326;DHT22;150;52.352;14.058;2023-01-13T07:50:02;11.20;47.40
326;DHT22;150;52.352;14.058;2023-01-13T07:52:29;11.20;47.20
326;DHT22;150;52.352;14.058;2023-01-13T07:54:57;11.10;47.40
326;DHT22;150;52.352;14.058;2023-01-13T07:57:23;11.20;47.80
326;DHT22;150;52.352;14.058;2023-01-13T07:59:50;11.00;47.30
326;DHT22;150;52.352;14.058;2023-01-13T08:02:17;11.00;48.40
326;DHT22;150;52.352;14.058;2023-01-13T08:04:43;11.00;49.20
326;DHT22;150;52.352;14.058;2023-01-13T08:07:10;11.00;49.10
326;DHT22;150;52.352;14.058;2023-01-13T08:09:37;11.00;49.70
326;DHT22;150;52.352;14.058;2023-01-13T08:12:05;10.90;51.10
326;DHT22;150;52.352;14.058;2023-01-13T08:14:49;10.90;51.10
326;DHT22;150;52.352;14.058;2023-01-13T08:17:18;11.00;50.70
326;DHT22;150;52.352;14.058;2023-01-13T08:19:46;11.10;50.60
326;DHT22;150;52.352;14.058;2023-01-13T08:22:13;11.00;49.80
326;DHT22;150;52.352;14.058;2023-01-13T08:24:40;10.90;50.20
326;DHT22;150;52.352;14.058;2023-01-13T08:27:08;11.00;50.40
326;DHT22;150;52.352;14.058;2023-01-13T08:29:34;11.00;50.90
326;DHT22;150;52.352;14.058;2023-01-13T08:32:01;11.00;51.30
326;DHT22;150;52.352;14.058;2023-01-13T08:34:27;11.00;51.60
326;DHT22;150;52.352;14.058;2023-01-13T08:36:54;11.00;52.20
326;DHT22;150;52.352;14.058;2023-01-13T08:39:22;11.00;52.40
326;DHT22;150;52.352;14.058;2023-01-13T08:41:49;11.00;52.90
326;DHT22;150;52.352;14.058;2023-01-13T08:44:25;10.90;52.80
326;DHT22;150;52.352;14.058;2023-01-13T08:46:52;10.90;53.90
326;DHT22;150;52.352;14.058;2023-01-13T08:49:19;10.90;54.10
326;DHT22;150;52.352;14.058;2023-01-13T08:51:46;11.00;53.50
326;DHT22;150;52.352;14.058;2023-01-13T08:54:13;11.00;52.30
326;DHT22;150;52.352;14.058;2023-01-13T08:56:40;10.90;51.20
326;DHT22;150;52.352;14.058;2023-01-13T08:59:10;10.90;50.80
326;DHT22;150;52.352;14.058;2023-01-13T09:01:39;10.80;50.20
326;DHT22;150;52.352;14.058;2023-01-13T09:04:06;10.70;48.90
326;DHT22;150;52.352;14.058;2023-01-13T09:06:33;10.70;49.30
326;DHT22;150;52.352;14.058;2023-01-13T09:08:59;10.70;49.60
326;DHT22;150;52.352;14.058;2023-01-13T09:11:30;10.70;48.40
326;DHT22;150;52.352;14.058;2023-01-13T09:14:17;10.80;47.70
326;DHT22;150;52.352;14.058;2023-01-13T09:16:45;10.80;47.20
326;DHT22;150;52.352;14.058;2023-01-13T09:19:12;10.80;46.60
326;DHT22;150;52.352;14.058;2023-01-13T09:21:39;10.80;46.40
326;DHT22;150;52.352;14.058;2023-01-13T09:24:06;10.80;46.30
326;DHT22;150;52.352;14.058;2023-01-13T09:26:33;10.90;45.80
326;DHT22;150;52.352;14.058;2023-01-13T09:29:00;10.80;46.40
326;DHT22;150;52.352;14.058;2023-01-13T09:31:26;10.90;46.50
326;DHT22;150;52.352;14.058;2023-01-13T09:33:54;11.00;46.30
326;DHT22;150;52.352;14.058;2023-01-13T09:36:39;11.00;47.30
326;DHT22;150;52.352;14.058;2023-01-13T09:39:05;11.00;47.80
326;DHT22;150;52.352;14.058;2023-01-13T09:41:39;11.00;48.20
326;DHT22;150;52.352;14.058;2023-01-13T09:44:27;10.90;48.50
326;DHT22;150;52.352;14.058;2023-01-13T09:46:57;10.80;49.30
326;DHT22;150;52.352;14.058;2023-01-13T09:49:34;10.70;49.80
326;DHT22;150;52.352;14.058;2023-01-13T09:52:05;10.70;49.70
326;DHT22;150;52.352;14.058;2023-01-13T09:54:37;10.60;50.30
326;DHT22;150;52.352;14.058;2023-01-13T09:57:08;10.70;50.20
326;DHT22;150;52.352;14.058;2023-01-13T09:59:36;10.50;49.00
326;DHT22;150;52.352;14.058;2023-01-13T10:02:18;10.50;50.50
326;DHT22;150;52.352;14.058;2023-01-13T10:05:09;10.50;50.30
326;DHT22;150;52.352;14.058;2023-01-13T10:07:41;10.50;50.60
326;DHT22;150;52.352;14.058;2023-01-13T10:10:12;10.60;49.80
326;DHT22;150;52.352;14.058;2023-01-13T10:12:49;10.60;50.30
326;DHT22;150;52.352;14.058;2023-01-13T10:15:33;10.50;50.20
326;DHT22;150;52.352;14.058;2023-01-13T10:18:08;10.60;50.20
326;DHT22;150;52.352;14.058;2023-01-13T10:20:48;10.70;50.40
326;DHT22;150;52.352;14.058;2023-01-13T10:26:19;10.70;49.80
326;DHT22;150;52.352;14.058;2023-01-13T10:28:51;10.60;49.70
326;DHT22;150;52.352;14.058;2023-01-13T10:31:19;10.60;50.30
326;DHT22;150;52.352;14.058;2023-01-13T10:33:46;10.60;49.90
326;DHT22;150;52.352;14.058;2023-01-13T10:36:16;10.60;49.70
326;DHT22;150;52.352;14.058;2023-01-13T10:38:47;10.50;49.50
326;DHT22;150;52.352;14.058;2023-01-13T10:41:23;10.50;49.10
326;DHT22;150;52.352;14.058;2023-01-13T10:44:01;10.40;49.00
326;DHT22;150;52.352;14.058;2023-01-13T10:46:29;10.40;48.60
326;DHT22;150;52.352;14.058;2023-01-13T10:48:58;10.30;48.50
326;DHT22;150;52.352;14.058;2023-01-13T10:51:28;10.20;48.40
326;DHT22;150;52.352;14.058;2023-01-13T10:53:59;10.10;48.30
326;DHT22;150;52.352;14.058;2023-01-13T10:56:29;10.10;48.60
326;DHT22;150;52.352;14.058;2023-01-13T10:59:12;10.20;48.40
326;DHT22;150;52.352;14.058;2023-01-13T11:01:41;10.20;48.40
326;DHT22;150;52.352;14.058;2023-01-13T11:04:25;10.30;47.70
326;DHT22;150;52.352;14.058;2023-01-13T11:06:54;10.30;47.40
326;DHT22;150;52.352;14.058;2023-01-13T11:09:22;10.40;47.40
326;DHT22;150;52.352;14.058;2023-01-13T11:11:50;10.40;46.50
326;DHT22;150;52.352;14.058;2023-01-13T11:14:24;10.40;46.50
326;DHT22;150;52.352;14.058;2023-01-13T11:17:20;10.40;46.10
326;DHT22;150;52.352;14.058;2023-01-13T11:19:54;10.50;46.20
326;DHT22;150;52.352;14.058;2023-01-13T11:22:28;10.50;46.00
326;DHT22;150;52.352;14.058;2023-01-13T11:24:59;10.50;45.80
326;DHT22;150;52.352;14.058;2023-01-13T11:27:37;10.50;45.70
326;DHT22;150;52.352;14.058;2023-01-13T11:30:09;10.60;45.40
326;DHT22;150;52.352;14.058;2023-01-13T11:32:43;10.50;45.50
326;DHT22;150;52.352;14.058;2023-01-13T11:35:16;10.60;44.90
326;DHT22;150;52.352;14.058;2023-01-13T11:37:49;10.60;45.10
326;DHT22;150;52.352;14.058;2023-01-13T11:40:31;10.60;45.60
326;DHT22;150;52.352;14.058;2023-01-13T11:43:03;10.70;45.50
326;DHT22;150;52.352;14.058;2023-01-13T11:45:39;10.80;45.10
326;DHT22;150;52.352;14.058;2023-01-13T11:48:11;10.80;43.70
326;DHT22;150;52.352;14.058;2023-01-13T11:50:41;10.80;44.10
326;DHT22;150;52.352;14.058;2023-01-13T11:53:20;10.80;44.60
326;DHT22;150;52.352;14.058;2023-01-13T11:55:55;11.00;44.00
326;DHT22;150;52.352;14.058;2023-01-13T12:01:38;11.10;43.90
326;DHT22;150;52.352;14.058;2023-01-13T12:04:22;11.10;43.70
326;DHT22;150;52.352;14.058;2023-01-13T12:06:53;11.10;43.50
326;DHT22;150;52.352;14.058;2023-01-13T12:09:35;11.10;42.60
326;DHT22;150;52.352;14.058;2023-01-13T12:12:13;11.10;42.70
326;DHT22;150;52.352;14.058;2023-01-13T12:17:59;11.20;41.80
326;DHT22;150;52.352;14.058;2023-01-13T12:20:33;11.10;41.80
326;DHT22;150;52.352;14.058;2023-01-13T12:23:09;11.20;41.20
326;DHT22;150;52.352;14.058;2023-01-13T12:25:41;11.20;41.30
326;DHT22;150;52.352;14.058;2023-01-13T12:28:11;11.30;41.40
326;DHT22;150;52.352;14.058;2023-01-13T12:30:43;11.30;40.00
326;DHT22;150;52.352;14.058;2023-01-13T12:33:17;11.30;39.60
326;DHT22;150;52.352;14.058;2023-01-13T12:35:51;11.30;39.50
326;DHT22;150;52.352;14.058;2023-01-13T12:38:29;11.20;39.30
326;DHT22;150;52.352;14.058;2023-01-13T12:41:08;11.20;39.60
326;DHT22;150;52.352;14.058;2023-01-13T12:43:36;11.10;39.00
326;DHT22;150;52.352;14.058;2023-01-13T12:46:34;11.20;39.30
326;DHT22;150;52.352;14.058;2023-01-13T12:49:18;11.30;39.00
326;DHT22;150;52.352;14.058;2023-01-13T12:52:11;11.40;39.00
326;DHT22;150;52.352;14.058;2023-01-13T12:55:07;11.30;37.30
326;DHT22;150;52.352;14.058;2023-01-13T12:57:36;11.40;37.20
326;DHT22;150;52.352;14.058;2023-01-13T13:00:16;11.30;37.00
326;DHT22;150;52.352;14.058;2023-01-13T13:03:26;11.30;37.20
326;DHT22;150;52.352;14.058;2023-01-13T13:05:57;11.30;36.80
326;DHT22;150;52.352;14.058;2023-01-13T13:08:43;11.30;36.20
326;DHT22;150;52.352;14.058;2023-01-13T13:11:21;11.30;35.90
326;DHT22;150;52.352;14.058;2023-01-13T13:14:11;11.10;35.10
326;DHT22;150;52.352;14.058;2023-01-13T13:16:46;11.00;36.00
326;DHT22;150;52.352;14.058;2023-01-13T13:19:39;11.00;36.50
326;DHT22;150;52.352;14.058;2023-01-13T13:22:35;11.10;36.10
326;DHT22;150;52.352;14.058;2023-01-13T13:25:25;11.00;35.50
326;DHT22;150;52.352;14.058;2023-01-13T13:28:07;11.00;36.10
326;DHT22;150;52.352;14.058;2023-01-13T13:30:42;11.00;36.30
326;DHT22;150;52.352;14.058;2023-01-13T13:33:23;11.00;36.20
326;DHT22;150;52.352;14.058;2023-01-13T13:36:06;11.00;36.10
326;DHT22;150;52.352;14.058;2023-01-13T13:39:05;11.00;36.00
326;DHT22;150;52.352;14.058;2023-01-13T13:42:03;11.00;36.20
326;DHT22;150;52.352;14.058;2023-01-13T13:44:52;10.80;36.10
326;DHT22;150;52.352;14.058;2023-01-13T13:47:39;10.80;36.30
326;DHT22;150;52.352;14.058;2023-01-13T13:50:10;10.90;37.30
326;DHT22;150;52.352;14.058;2023-01-13T13:52:40;11.00;35.50
326;DHT22;150;52.352;14.058;2023-01-13T13:55:13;11.00;34.80
326;DHT22;150;52.352;14.058;2023-01-13T13:57:44;11.10;35.30
326;DHT22;150;52.352;14.058;2023-01-13T14:00:20;11.20;34.80
326;DHT22;150;52.352;14.058;2023-01-13T14:02:50;11.30;34.60
326;DHT22;150;52.352;14.058;2023-01-13T14:05:20;11.20;33.50
326;DHT22;150;52.352;14.058;2023-01-13T14:07:49;11.20;33.50
326;DHT22;150;52.352;14.058;2023-01-13T14:10:18;11.20;33.50
326;DHT22;150;52.352;14.058;2023-01-13T14:12:45;11.20;33.50
326;DHT22;150;52.352;14.058;2023-01-13T14:15:27;11.10;33.10
326;DHT22;150;52.352;14.058;2023-01-13T14:17:57;11.10;32.70
326;DHT22;150;52.352;14.058;2023-01-13T14:20:24;11.00;32.20
326;DHT22;150;52.352;14.058;2023-01-13T14:22:53;10.90;33.30
326;DHT22;150;52.352;14.058;2023-01-13T14:25:30;10.90;33.30
326;DHT22;150;52.352;14.058;2023-01-13T14:28:02;10.90;33.30
326;DHT22;150;52.352;14.058;2023-01-13T14:30:29;10.80;32.40
326;DHT22;150;52.352;14.058;2023-01-13T14:32:57;10.70;32.30
326;DHT22;150;52.352;14.058;2023-01-13T14:35:24;10.60;32.50
326;DHT22;150;52.352;14.058;2023-01-13T14:38:00;10.50;32.90
326;DHT22;150;52.352;14.058;2023-01-13T14:40:39;10.50;32.90
326;DHT22;150;52.352;14.058;2023-01-13T14:43:12;10.50;32.60
326;DHT22;150;52.352;14.058;2023-01-13T14:45:42;10.40;32.50
326;DHT22;150;52.352;14.058;2023-01-13T14:48:20;10.40;32.80
326;DHT22;150;52.352;14.058;2023-01-13T14:50:47;10.40;32.80
326;DHT22;150;52.352;14.058;2023-01-13T14:53:26;10.30;32.70
326;DHT22;150;52.352;14.058;2023-01-13T14:55:53;10.30;32.70
326;DHT22;150;52.352;14.058;2023-01-13T14:58:24;10.20;32.60
326;DHT22;150;52.352;14.058;2023-01-13T15:01:26;10.20;32.60
326;DHT22;150;52.352;14.058;2023-01-13T15:03:53;10.30;32.70
326;DHT22;150;52.352;14.058;2023-01-13T15:06:21;10.30;32.70
326;DHT22;150;52.352;14.058;2023-01-13T15:08:48;10.30;32.60
326;DHT22;150;52.352;14.058;2023-01-13T15:11:21;10.20;32.60
326;DHT22;150;52.352;14.058;2023-01-13T15:13:54;10.30;32.70
326;DHT22;150;52.352;14.058;2023-01-13T15:16:24;10.30;32.30
326;DHT22;150;52.352;14.058;2023-01-13T15:18:53;10.30;32.30
326;DHT22;150;52.352;14.058;2023-01-13T15:21:20;10.30;32.30
326;DHT22;150;52.352;14.058;2023-01-13T15:23:47;10.30;32.20
326;DHT22;150;52.352;14.058;2023-01-13T15:26:19;10.20;32.60
326;DHT22;150;52.352;14.058;2023-01-13T15:28:46;10.10;32.50
326;DHT22;150;52.352;14.058;2023-01-13T15:31:13;10.00;32.50
326;DHT22;150;52.352;14.058;2023-01-13T15:33:40;10.00;32.40
326;DHT22;150;52.352;14.058;2023-01-13T15:36:18;10.00;32.40
326;DHT22;150;52.352;14.058;2023-01-13T15:38:45;9.90;33.30
326;DHT22;150;52.352;14.058;2023-01-13T15:41:11;9.90;33.30
326;DHT22;150;52.352;14.058;2023-01-13T15:43:38;9.90;33.30
326;DHT22;150;52.352;14.058;2023-01-13T15:46:23;9.90;33.30
326;DHT22;150;52.352;14.058;2023-01-13T15:49:07;9.80;33.20
326;DHT22;150;52.352;14.058;2023-01-13T15:51:38;9.80;33.20
326;DHT22;150;52.352;14.058;2023-01-13T15:54:05;9.70;33.10
326;DHT22;150;52.352;14.058;2023-01-13T15:56:33;9.70;33.10
326;DHT22;150;52.352;14.058;2023-01-13T15:59:02;9.60;33.10
326;DHT22;150;52.352;14.058;2023-01-13T16:01:28;9.50;33.20
326;DHT22;150;52.352;14.058;2023-01-13T16:03:55;9.50;33.10
326;DHT22;150;52.352;14.058;2023-01-13T16:06:27;9.60;33.00
326;DHT22;150;52.352;14.058;2023-01-13T16:08:55;9.50;33.00
326;DHT22;150;52.352;14.058;2023-01-13T16:11:22;9.40;32.90
326;DHT22;150;52.352;14.058;2023-01-13T16:13:48;9.50;33.00
326;DHT22;150;52.352;14.058;2023-01-13T16:16:18;9.40;32.90
326;DHT22;150;52.352;14.058;2023-01-13T16:18:45;9.40;32.90
326;DHT22;150;52.352;14.058;2023-01-13T16:21:12;9.40;32.90
326;DHT22;150;52.352;14.058;2023-01-13T16:23:39;9.40;33.20
326;DHT22;150;52.352;14.058;2023-01-13T16:26:18;9.40;32.90
326;DHT22;150;52.352;14.058;2023-01-13T16:28:46;9.40;33.50
326;DHT22;150;52.352;14.058;2023-01-13T16:31:23;9.30;33.70
326;DHT22;150;52.352;14.058;2023-01-13T16:33:51;9.30;33.50
326;DHT22;150;52.352;14.058;2023-01-13T16:36:19;9.30;34.30
326;DHT22;150;52.352;14.058;2023-01-13T16:38:46;9.30;34.30
326;DHT22;150;52.352;14.058;2023-01-13T16:41:15;9.20;34.30
326;DHT22;150;52.352;14.058;2023-01-13T16:43:42;9.20;34.30
326;DHT22;150;52.352;14.058;2023-01-13T16:46:16;9.20;34.90
326;DHT22;150;52.352;14.058;2023-01-13T16:48:44;9.20;35.30
326;DHT22;150;52.352;14.058;2023-01-13T16:51:10;9.20;34.80
326;DHT22;150;52.352;14.058;2023-01-13T16:53:37;9.10;35.30
326;DHT22;150;52.352;14.058;2023-01-13T16:56:16;9.20;35.50
326;DHT22;150;52.352;14.058;2023-01-13T16:58:43;9.20;35.90
326;DHT22;150;52.352;14.058;2023-01-13T17:01:19;9.30;35.80